sensor_id;sensor_type;location;lat;lon;timestamp;temperature;humidity
52725;DHT22;38621;52.830;6.914;2023-10-13T00:02:07;16.30;99.90
52725;DHT22;38621;52.830;6.914;2023-10-13T00:04:33;16.30;99.90
52725;DHT22;38621;52.830;6.914;2023-10-13T00:07:01;16.30;99.90
52725;DHT22;38621;52.830;6.914;2023-10-13T00:09:28;16.30;99.90
52725;DHT22;38621;52.830;6.914;2023-10-13T00:12:04;16.40;99.90
52725;DHT22;38621;52.830;6.914;2023-10-13T00:14:33;16.40;99.90
52725;DHT22;38621;52.830;6.914;2023-10-13T00:17:04;16.40;99.90
52725;DHT22;38621;52.830;6.914;2023-10-13T00:19:37;16.40;99.90
52725;DHT22;38621;52.830;6.914;2023-10-13T00:22:09;16.40;99.90
52725;DHT22;38621;52.830;6.914;2023-10-13T00:24:40;16.50;99.90
52725;DHT22;38621;52.830;6.914;2023-10-13T00:27:10;16.50;99.90
52725;DHT22;38621;52.830;6.914;2023-10-13T00:29:51;16.40;99.90
52725;DHT22;38621;52.830;6.914;2023-10-13T00:32:16;16.50;99.90
52725;DHT22;38621;52.830;6.914;2023-10-13T00:34:48;16.50;99.90
52725;DHT22;38621;52.830;6.914;2023-10-13T00:37:20;16.50;99.90
52725;DHT22;38621;52.830;6.914;2023-10-13T00:39:52;16.50;99.90
52725;DHT22;38621;52.830;6.914;2023-10-13T00:42:22;16.50;99.90
52725;DHT22;38621;52.830;6.914;2023-10-13T00:45:08;16.50;99.90
52725;DHT22;38621;52.830;6.914;2023-10-13T00:47:34;16.50;99.90
52725;DHT22;38621;52.830;6.914;2023-10-13T00:50:16;16.50;99.90
52725;DHT22;38621;52.830;6.914;2023-10-13T00:52:44;16.50;99.90
52725;DHT22;38621;52.830;6.914;2023-10-13T00:55:13;16.50;99.90
52725;DHT22;38621;52.830;6.914;2023-10-13T00:57:40;16.50;99.90
52725;DHT22;38621;52.830;6.914;2023-10-13T01:00:06;16.50;99.90
52725;DHT22;38621;52.830;6.914;2023-10-13T01:02:47;16.50;99.90
52725;DHT22;38621;52.830;6.914;2023-10-13T01:05:25;16.50;99.90
52725;DHT22;38621;52.830;6.914;2023-10-13T01:07:51;16.50;99.90
52725;DHT22;38621;52.830;6.914;2023-10-13T01:10:21;16.50;99.90
52725;DHT22;38621;52.830;6.914;2023-10-13T01:12:53;16.50;99.90
52725;DHT22;38621;52.830;6.914;2023-10-13T01:15:20;16.50;99.90
52725;DHT22;38621;52.830;6.914;2023-10-13T01:18:05;16.50;99.90
52725;DHT22;38621;52.830;6.914;2023-10-13T01:20:37;16.50;99.90
52725;DHT22;38621;52.830;6.914;2023-10-13T01:23:12;16.50;99.90
52725;DHT22;38621;52.830;6.914;2023-10-13T01:25:45;16.50;99.90
52725;DHT22;38621;52.830;6.914;2023-10-13T01:28:11;16.50;99.90
52725;DHT22;38621;52.830;6.914;2023-10-13T01:30:44;16.50;99.90
52725;DHT22;38621;52.830;6.914;2023-10-13T01:33:18;16.50;99.90
52725;DHT22;38621;52.830;6.914;2023-10-13T01:35:55;16.40;99.90
52725;DHT22;38621;52.830;6.914;2023-10-13T01:38:24;16.50;99.90
52725;DHT22;38621;52.830;6.914;2023-10-13T01:40:53;16.50;99.90
52725;DHT22;38621;52.830;6.914;2023-10-13T01:43:22;16.50;99.90
52725;DHT22;38621;52.830;6.914;2023-10-13T01:45:48;16.50;99.90
52725;DHT22;38621;52.830;6.914;2023-10-13T01:48:18;16.50;99.90
52725;DHT22;38621;52.830;6.914;2023-10-13T01:50:46;16.50;99.90
52725;DHT22;38621;52.830;6.914;2023-10-13T01:53:42;16.50;99.90
52725;DHT22;38621;52.830;6.914;2023-10-13T01:56:08;16.50;99.90
52725;DHT22;38621;52.830;6.914;2023-10-13T01:58:38;16.50;99.90
52725;DHT22;38621;52.830;6.914;2023-10-13T02:01:10;16.40;99.90
52725;DHT22;38621;52.830;6.914;2023-10-13T02:03:36;16.50;99.90
52725;DHT22;38621;52.830;6.914;2023-10-13T02:06:07;16.50;99.90
52725;DHT22;38621;52.830;6.914;2023-10-13T02:08:36;16.50;99.90
52725;DHT22;38621;52.830;6.914;2023-10-13T02:11:09;16.50;99.90
52725;DHT22;38621;52.830;6.914;2023-10-13T02:13:35;16.50;99.90
52725;DHT22;38621;52.830;6.914;2023-10-13T02:16:14;16.40;99.90
52725;DHT22;38621;52.830;6.914;2023-10-13T02:18:46;16.50;99.90
52725;DHT22;38621;52.830;6.914;2023-10-13T02:21:17;16.50;99.90
52725;DHT22;38621;52.830;6.914;2023-10-13T02:23:43;16.50;99.90
52725;DHT22;38621;52.830;6.914;2023-10-13T02:26:11;16.50;99.90
52725;DHT22;38621;52.830;6.914;2023-10-13T02:28:40;16.50;99.90
52725;DHT22;38621;52.830;6.914;2023-10-13T02:31:06;16.40;99.90
52725;DHT22;38621;52.830;6.914;2023-10-13T02:33:33;16.50;99.90
52725;DHT22;38621;52.830;6.914;2023-10-13T02:36:02;16.50;99.90
52725;DHT22;38621;52.830;6.914;2023-10-13T02:38:32;16.50;99.90
52725;DHT22;38621;52.830;6.914;2023-10-13T02:41:15;16.40;99.90
52725;DHT22;38621;52.830;6.914;2023-10-13T02:43:55;16.50;99.90
52725;DHT22;38621;52.830;6.914;2023-10-13T02:46:21;16.50;99.90
52725;DHT22;38621;52.830;6.914;2023-10-13T02:48:48;16.50;99.90
52725;DHT22;38621;52.830;6.914;2023-10-13T02:51:20;16.50;99.90
52725;DHT22;38621;52.830;6.914;2023-10-13T02:53:51;16.50;99.90
52725;DHT22;38621;52.830;6.914;2023-10-13T02:56:19;16.50;99.90
52725;DHT22;38621;52.830;6.914;2023-10-13T02:58:52;16.50;99.90
52725;DHT22;38621;52.830;6.914;2023-10-13T03:01:32;16.50;99.90
52725;DHT22;38621;52.830;6.914;2023-10-13T03:04:00;16.50;99.90
52725;DHT22;38621;52.830;6.914;2023-10-13T03:06:27;16.50;99.90
52725;DHT22;38621;52.830;6.914;2023-10-13T03:09:03;16.50;99.90
52725;DHT22;38621;52.830;6.914;2023-10-13T03:11:43;16.50;99.90
52725;DHT22;38621;52.830;6.914;2023-10-13T03:14:17;16.50;99.90
52725;DHT22;38621;52.830;6.914;2023-10-13T03:17:02;16.50;99.90
52725;DHT22;38621;52.830;6.914;2023-10-13T03:19:28;16.40;99.90
52725;DHT22;38621;52.830;6.914;2023-10-13T03:22:03;16.50;99.90
52725;DHT22;38621;52.830;6.914;2023-10-13T03:24:37;16.40;99.90
52725;DHT22;38621;52.830;6.914;2023-10-13T03:27:07;16.40;99.90
52725;DHT22;38621;52.830;6.914;2023-10-13T03:29:40;16.40;99.90
52725;DHT22;38621;52.830;6.914;2023-10-13T03:32:09;16.40;99.90
52725;DHT22;38621;52.830;6.914;2023-10-13T03:34:45;16.40;99.90
52725;DHT22;38621;52.830;6.914;2023-10-13T03:37:26;16.40;99.90
52725;DHT22;38621;52.830;6.914;2023-10-13T03:40:05;16.40;99.90
52725;DHT22;38621;52.830;6.914;2023-10-13T03:42:46;16.40;99.90
52725;DHT22;38621;52.830;6.914;2023-10-13T03:45:24;16.40;99.90
52725;DHT22;38621;52.830;6.914;2023-10-13T03:47:51;16.40;99.90
52725;DHT22;38621;52.830;6.914;2023-10-13T03:50:18;16.40;99.90
52725;DHT22;38621;52.830;6.914;2023-10-13T03:52:55;16.40;99.90
52725;DHT22;38621;52.830;6.914;2023-10-13T03:55:24;16.40;99.90
52725;DHT22;38621;52.830;6.914;2023-10-13T03:57:53;16.40;99.90
52725;DHT22;38621;52.830;6.914;2023-10-13T04:00:20;16.40;99.90
52725;DHT22;38621;52.830;6.914;2023-10-13T04:02:57;16.40;99.90
52725;DHT22;38621;52.830;6.914;2023-10-13T04:05:35;16.40;99.90
52725;DHT22;38621;52.830;6.914;2023-10-13T04:08:11;16.40;99.90
52725;DHT22;38621;52.830;6.914;2023-10-13T04:10:56;16.40;99.90
52725;DHT22;38621;52.830;6.914;2023-10-13T04:13:22;16.40;99.90
52725;DHT22;38621;52.830;6.914;2023-10-13T04:16:10;16.40;99.90
52725;DHT22;38621;52.830;6.914;2023-10-13T04:18:51;16.40;99.90
52725;DHT22;38621;52.830;6.914;2023-10-13T04:21:26;16.40;99.90
52725;DHT22;38621;52.830;6.914;2023-10-13T04:24:07;16.40;99.90
52725;DHT22;38621;52.830;6.914;2023-10-13T04:26:52;16.30;99.90
52725;DHT22;38621;52.830;6.914;2023-10-13T04:29:37;16.30;99.90
52725;DHT22;38621;52.830;6.914;2023-10-13T04:32:18;16.30;99.90
52725;DHT22;38621;52.830;6.914;2023-10-13T04:35:04;16.30;99.90
52725;DHT22;38621;52.830;6.914;2023-10-13T04:37:39;16.30;99.90
52725;DHT22;38621;52.830;6.914;2023-10-13T04:40:25;16.30;99.90
52725;DHT22;38621;52.830;6.914;2023-10-13T04:42:52;16.30;99.90
52725;DHT22;38621;52.830;6.914;2023-10-13T04:45:30;16.30;99.90
52725;DHT22;38621;52.830;6.914;2023-10-13T04:47:56;16.30;99.90
52725;DHT22;38621;52.830;6.914;2023-10-13T04:50:40;16.30;99.90
52725;DHT22;38621;52.830;6.914;2023-10-13T04:53:16;16.30;99.90
52725;DHT22;38621;52.830;6.914;2023-10-13T04:56:20;16.30;99.90
52725;DHT22;38621;52.830;6.914;2023-10-13T04:59:15;16.20;99.90
52725;DHT22;38621;52.830;6.914;2023-10-13T05:02:01;16.20;99.90
52725;DHT22;38621;52.830;6.914;2023-10-13T05:04:45;16.20;99.90
52725;DHT22;38621;52.830;6.914;2023-10-13T05:07:30;16.20;99.90
52725;DHT22;38621;52.830;6.914;2023-10-13T05:10:14;16.20;99.90
52725;DHT22;38621;52.830;6.914;2023-10-13T05:12:58;16.20;99.90
52725;DHT22;38621;52.830;6.914;2023-10-13T05:15:44;16.20;99.90
52725;DHT22;38621;52.830;6.914;2023-10-13T05:18:28;16.20;99.90
52725;DHT22;38621;52.830;6.914;2023-10-13T05:21:13;16.10;99.90
52725;DHT22;38621;52.830;6.914;2023-10-13T05:23:57;16.20;99.90
52725;DHT22;38621;52.830;6.914;2023-10-13T05:26:41;16.10;99.90
52725;DHT22;38621;52.830;6.914;2023-10-13T05:29:26;16.10;99.90
52725;DHT22;38621;52.830;6.914;2023-10-13T05:32:10;16.10;99.90
52725;DHT22;38621;52.830;6.914;2023-10-13T05:34:54;16.10;99.90
52725;DHT22;38621;52.830;6.914;2023-10-13T05:37:38;16.00;99.90
52725;DHT22;38621;52.830;6.914;2023-10-13T05:40:22;16.00;99.90
52725;DHT22;38621;52.830;6.914;2023-10-13T05:43:06;16.00;99.90
52725;DHT22;38621;52.830;6.914;2023-10-13T05:45:51;16.00;99.90
52725;DHT22;38621;52.830;6.914;2023-10-13T05:48:36;16.00;99.90
52725;DHT22;38621;52.830;6.914;2023-10-13T05:51:29;16.10;99.90
52725;DHT22;38621;52.830;6.914;2023-10-13T05:54:02;16.10;99.90
52725;DHT22;38621;52.830;6.914;2023-10-13T05:56:44;16.10;99.90
52725;DHT22;38621;52.830;6.914;2023-10-13T05:59:30;16.10;99.90
52725;DHT22;38621;52.830;6.914;2023-10-13T06:02:18;16.00;99.90
52725;DHT22;38621;52.830;6.914;2023-10-13T06:05:04;16.10;99.90
52725;DHT22;38621;52.830;6.914;2023-10-13T06:07:49;16.10;99.90
52725;DHT22;38621;52.830;6.914;2023-10-13T06:10:34;16.10;99.90
52725;DHT22;38621;52.830;6.914;2023-10-13T06:13:18;16.10;99.90
52725;DHT22;38621;52.830;6.914;2023-10-13T06:16:13;16.10;99.90
52725;DHT22;38621;52.830;6.914;2023-10-13T06:18:57;16.10;99.90
52725;DHT22;38621;52.830;6.914;2023-10-13T06:21:42;16.10;99.90
52725;DHT22;38621;52.830;6.914;2023-10-13T06:24:27;16.20;99.90
52725;DHT22;38621;52.830;6.914;2023-10-13T06:27:12;16.10;99.90
52725;DHT22;38621;52.830;6.914;2023-10-13T06:29:56;16.10;99.90
52725;DHT22;38621;52.830;6.914;2023-10-13T06:32:23;16.10;99.90
52725;DHT22;38621;52.830;6.914;2023-10-13T06:34:55;16.10;99.90
52725;DHT22;38621;52.830;6.914;2023-10-13T06:37:27;16.10;99.90
52725;DHT22;38621;52.830;6.914;2023-10-13T06:40:10;16.10;99.90
52725;DHT22;38621;52.830;6.914;2023-10-13T06:42:51;16.20;99.90
52725;DHT22;38621;52.830;6.914;2023-10-13T06:45:18;16.20;99.90
52725;DHT22;38621;52.830;6.914;2023-10-13T06:47:46;16.20;99.90
52725;DHT22;38621;52.830;6.914;2023-10-13T06:50:15;16.30;99.90
52725;DHT22;38621;52.830;6.914;2023-10-13T06:52:45;16.30;99.90
52725;DHT22;38621;52.830;6.914;2023-10-13T06:55:12;16.30;99.90
52725;DHT22;38621;52.830;6.914;2023-10-13T06:57:49;16.40;99.90
52725;DHT22;38621;52.830;6.914;2023-10-13T07:00:17;16.50;99.90
52725;DHT22;38621;52.830;6.914;2023-10-13T07:02:53;16.50;99.90
52725;DHT22;38621;52.830;6.914;2023-10-13T07:05:19;16.50;99.90
52725;DHT22;38621;52.830;6.914;2023-10-13T07:07:45;16.60;99.90
52725;DHT22;38621;52.830;6.914;2023-10-13T07:10:12;16.60;99.90
52725;DHT22;38621;52.830;6.914;2023-10-13T07:12:38;16.70;99.90
52725;DHT22;38621;52.830;6.914;2023-10-13T07:15:09;16.70;99.90
52725;DHT22;38621;52.830;6.914;2023-10-13T07:17:44;16.70;99.90
52725;DHT22;38621;52.830;6.914;2023-10-13T07:20:11;16.70;99.90
52725;DHT22;38621;52.830;6.914;2023-10-13T07:23:02;16.70;99.90
52725;DHT22;38621;52.830;6.914;2023-10-13T07:25:37;16.70;99.90
52725;DHT22;38621;52.830;6.914;2023-10-13T07:28:04;16.70;99.90
52725;DHT22;38621;52.830;6.914;2023-10-13T07:30:31;16.70;99.90
52725;DHT22;38621;52.830;6.914;2023-10-13T07:33:05;16.70;99.90
52725;DHT22;38621;52.830;6.914;2023-10-13T07:35:31;16.80;99.90
52725;DHT22;38621;52.830;6.914;2023-10-13T07:38:01;16.80;99.90
52725;DHT22;38621;52.830;6.914;2023-10-13T07:40:27;16.70;99.90
52725;DHT22;38621;52.830;6.914;2023-10-13T07:43:05;16.70;99.90
52725;DHT22;38621;52.830;6.914;2023-10-13T07:45:38;16.70;99.90
52725;DHT22;38621;52.830;6.914;2023-10-13T07:48:07;16.80;99.90
52725;DHT22;38621;52.830;6.914;2023-10-13T07:51:04;16.80;99.90
52725;DHT22;38621;52.830;6.914;2023-10-13T07:53:31;16.80;99.90
52725;DHT22;38621;52.830;6.914;2023-10-13T07:56:03;16.80;99.90
52725;DHT22;38621;52.830;6.914;2023-10-13T07:58:31;16.80;99.90
52725;DHT22;38621;52.830;6.914;2023-10-13T08:00:59;16.80;99.90
52725;DHT22;38621;52.830;6.914;2023-10-13T08:03:41;16.80;99.90
52725;DHT22;38621;52.830;6.914;2023-10-13T08:06:11;16.80;99.90
52725;DHT22;38621;52.830;6.914;2023-10-13T08:08:38;16.80;99.90
52725;DHT22;38621;52.830;6.914;2023-10-13T08:11:14;16.80;99.90
52725;DHT22;38621;52.830;6.914;2023-10-13T08:16:23;16.90;99.90
52725;DHT22;38621;52.830;6.914;2023-10-13T08:18:53;16.90;99.90
52725;DHT22;38621;52.830;6.914;2023-10-13T08:21:19;16.90;99.90
52725;DHT22;38621;52.830;6.914;2023-10-13T08:23:57;16.90;99.90
52725;DHT22;38621;52.830;6.914;2023-10-13T08:26:28;16.90;99.90
52725;DHT22;38621;52.830;6.914;2023-10-13T08:29:13;16.90;99.90
52725;DHT22;38621;52.830;6.914;2023-10-13T08:31:49;16.90;99.90
52725;DHT22;38621;52.830;6.914;2023-10-13T08:34:36;16.90;99.90
52725;DHT22;38621;52.830;6.914;2023-10-13T08:37:30;17.00;99.90
52725;DHT22;38621;52.830;6.914;2023-10-13T08:40:15;17.00;99.90
52725;DHT22;38621;52.830;6.914;2023-10-13T08:42:44;17.00;99.90
52725;DHT22;38621;52.830;6.914;2023-10-13T08:45:15;17.00;99.90
52725;DHT22;38621;52.830;6.914;2023-10-13T08:47:57;17.00;99.90
52725;DHT22;38621;52.830;6.914;2023-10-13T08:50:53;17.00;99.90
52725;DHT22;38621;52.830;6.914;2023-10-13T08:53:27;17.10;99.90
52725;DHT22;38621;52.830;6.914;2023-10-13T08:55:57;17.10;99.90
52725;DHT22;38621;52.830;6.914;2023-10-13T08:58:28;17.20;99.90
52725;DHT22;38621;52.830;6.914;2023-10-13T09:01:14;17.30;99.90
52725;DHT22;38621;52.830;6.914;2023-10-13T09:04:03;17.40;99.90
52725;DHT22;38621;52.830;6.914;2023-10-13T09:09:54;17.60;99.90
52725;DHT22;38621;52.830;6.914;2023-10-13T09:12:21;17.60;99.90
52725;DHT22;38621;52.830;6.914;2023-10-13T09:15:10;17.70;99.90
52725;DHT22;38621;52.830;6.914;2023-10-13T09:17:49;17.80;99.90
52725;DHT22;38621;52.830;6.914;2023-10-13T09:20:38;17.90;99.90
52725;DHT22;38621;52.830;6.914;2023-10-13T09:23:14;18.00;99.90
52725;DHT22;38621;52.830;6.914;2023-10-13T09:26:09;18.00;99.90
52725;DHT22;38621;52.830;6.914;2023-10-13T09:28:35;18.10;99.90
52725;DHT22;38621;52.830;6.914;2023-10-13T09:31:03;18.20;99.90
52725;DHT22;38621;52.830;6.914;2023-10-13T09:33:36;18.30;99.90
52725;DHT22;38621;52.830;6.914;2023-10-13T09:36:03;18.40;99.90
52725;DHT22;38621;52.830;6.914;2023-10-13T09:38:33;18.50;99.90
52725;DHT22;38621;52.830;6.914;2023-10-13T09:40:59;18.50;99.90
52725;DHT22;38621;52.830;6.914;2023-10-13T09:43:35;18.50;99.90
52725;DHT22;38621;52.830;6.914;2023-10-13T09:46:04;18.40;99.90
52725;DHT22;38621;52.830;6.914;2023-10-13T09:48:38;18.40;99.90
52725;DHT22;38621;52.830;6.914;2023-10-13T09:51:16;18.30;99.90
52725;DHT22;38621;52.830;6.914;2023-10-13T09:54:04;18.40;99.90
52725;DHT22;38621;52.830;6.914;2023-10-13T09:56:47;18.30;99.90
52725;DHT22;38621;52.830;6.914;2023-10-13T09:59:22;18.40;99.90
52725;DHT22;38621;52.830;6.914;2023-10-13T10:01:51;18.50;99.90
52725;DHT22;38621;52.830;6.914;2023-10-13T10:04:18;18.60;99.90
52725;DHT22;38621;52.830;6.914;2023-10-13T10:06:58;18.60;99.90
52725;DHT22;38621;52.830;6.914;2023-10-13T10:09:33;18.60;99.90
52725;DHT22;38621;52.830;6.914;2023-10-13T10:17:22;18.70;99.90
52725;DHT22;38621;52.830;6.914;2023-10-13T10:19:50;18.70;99.90
52725;DHT22;38621;52.830;6.914;2023-10-13T10:22:31;18.80;99.90
52725;DHT22;38621;52.830;6.914;2023-10-13T10:25:05;18.80;99.90
52725;DHT22;38621;52.830;6.914;2023-10-13T10:27:58;18.80;99.90
52725;DHT22;38621;52.830;6.914;2023-10-13T10:32:55;18.90;99.90
52725;DHT22;38621;52.830;6.914;2023-10-13T10:35:25;19.00;99.90
52725;DHT22;38621;52.830;6.914;2023-10-13T10:38:27;19.00;99.90
52725;DHT22;38621;52.830;6.914;2023-10-13T10:43:36;19.00;99.90
52725;DHT22;38621;52.830;6.914;2023-10-13T10:46:17;19.00;99.90
52725;DHT22;38621;52.830;6.914;2023-10-13T10:48:42;19.00;99.90
52725;DHT22;38621;52.830;6.914;2023-10-13T10:51:13;19.00;99.90
52725;DHT22;38621;52.830;6.914;2023-10-13T10:53:52;19.10;99.90
52725;DHT22;38621;52.830;6.914;2023-10-13T10:56:27;19.00;99.90
52725;DHT22;38621;52.830;6.914;2023-10-13T10:59:02;19.10;99.90
52725;DHT22;38621;52.830;6.914;2023-10-13T11:01:30;19.20;99.90
52725;DHT22;38621;52.830;6.914;2023-10-13T11:04:06;19.30;99.90
52725;DHT22;38621;52.830;6.914;2023-10-13T11:06:54;19.30;99.90
52725;DHT22;38621;52.830;6.914;2023-10-13T11:09:31;19.40;99.90
52725;DHT22;38621;52.830;6.914;2023-10-13T11:12:17;19.30;99.90
52725;DHT22;38621;52.830;6.914;2023-10-13T11:15:00;19.30;99.90
52725;DHT22;38621;52.830;6.914;2023-10-13T11:17:26;19.30;99.90
52725;DHT22;38621;52.830;6.914;2023-10-13T11:20:08;19.40;99.90
52725;DHT22;38621;52.830;6.914;2023-10-13T11:22:41;19.40;99.90
52725;DHT22;38621;52.830;6.914;2023-10-13T11:25:20;19.40;99.90
52725;DHT22;38621;52.830;6.914;2023-10-13T11:27:48;19.40;99.90
52725;DHT22;38621;52.830;6.914;2023-10-13T11:30:14;19.40;99.90
52725;DHT22;38621;52.830;6.914;2023-10-13T11:33:10;19.40;99.90
52725;DHT22;38621;52.830;6.914;2023-10-13T11:35:38;19.50;99.90
52725;DHT22;38621;52.830;6.914;2023-10-13T11:40:59;19.50;99.90
52725;DHT22;38621;52.830;6.914;2023-10-13T11:43:39;19.50;99.90
52725;DHT22;38621;52.830;6.914;2023-10-13T11:46:12;19.50;99.90
52725;DHT22;38621;52.830;6.914;2023-10-13T11:48:40;19.60;99.90
52725;DHT22;38621;52.830;6.914;2023-10-13T11:51:14;19.80;99.90
52725;DHT22;38621;52.830;6.914;2023-10-13T11:53:44;19.90;99.90
52725;DHT22;38621;52.830;6.914;2023-10-13T11:56:18;20.00;99.90
52725;DHT22;38621;52.830;6.914;2023-10-13T11:58:48;20.00;99.90
52725;DHT22;38621;52.830;6.914;2023-10-13T12:01:14;20.10;99.90
52725;DHT22;38621;52.830;6.914;2023-10-13T12:03:47;20.10;99.90
52725;DHT22;38621;52.830;6.914;2023-10-13T12:06:33;20.00;99.90
52725;DHT22;38621;52.830;6.914;2023-10-13T12:09:08;20.00;99.90
52725;DHT22;38621;52.830;6.914;2023-10-13T12:11:43;19.90;99.90
52725;DHT22;38621;52.830;6.914;2023-10-13T12:14:14;19.90;99.90
52725;DHT22;38621;52.830;6.914;2023-10-13T12:16:48;20.00;99.90
52725;DHT22;38621;52.830;6.914;2023-10-13T12:19:23;20.00;99.90
52725;DHT22;38621;52.830;6.914;2023-10-13T12:21:53;20.00;99.90
52725;DHT22;38621;52.830;6.914;2023-10-13T12:24:27;19.90;99.90
52725;DHT22;38621;52.830;6.914;2023-10-13T12:27:03;19.90;99.90
52725;DHT22;38621;52.830;6.914;2023-10-13T12:29:43;19.90;99.90
52725;DHT22;38621;52.830;6.914;2023-10-13T12:32:12;20.00;99.90
52725;DHT22;38621;52.830;6.914;2023-10-13T12:34:39;20.00;99.90
52725;DHT22;38621;52.830;6.914;2023-10-13T12:37:24;20.10;99.90
52725;DHT22;38621;52.830;6.914;2023-10-13T12:40:07;20.10;99.90
52725;DHT22;38621;52.830;6.914;2023-10-13T12:42:51;20.10;99.90
52725;DHT22;38621;52.830;6.914;2023-10-13T12:45:40;20.00;99.90
52725;DHT22;38621;52.830;6.914;2023-10-13T12:48:24;20.00;99.90
52725;DHT22;38621;52.830;6.914;2023-10-13T12:51:08;20.00;99.90
52725;DHT22;38621;52.830;6.914;2023-10-13T12:53:51;20.10;99.90
52725;DHT22;38621;52.830;6.914;2023-10-13T12:56:17;20.20;99.90
52725;DHT22;38621;52.830;6.914;2023-10-13T12:58:51;20.30;99.90
52725;DHT22;38621;52.830;6.914;2023-10-13T13:01:26;20.30;99.90
52725;DHT22;38621;52.830;6.914;2023-10-13T13:03:58;20.30;99.90
52725;DHT22;38621;52.830;6.914;2023-10-13T13:06:27;20.40;99.90
52725;DHT22;38621;52.830;6.914;2023-10-13T13:08:59;20.40;99.90
52725;DHT22;38621;52.830;6.914;2023-10-13T13:11:26;20.40;99.90
52725;DHT22;38621;52.830;6.914;2023-10-13T13:13:54;20.40;99.90
52725;DHT22;38621;52.830;6.914;2023-10-13T13:16:20;20.30;99.90
52725;DHT22;38621;52.830;6.914;2023-10-13T13:18:52;20.40;99.90
52725;DHT22;38621;52.830;6.914;2023-10-13T13:21:21;20.40;99.90
52725;DHT22;38621;52.830;6.914;2023-10-13T13:23:52;20.40;99.90
52725;DHT22;38621;52.830;6.914;2023-10-13T13:26:21;20.40;99.90
52725;DHT22;38621;52.830;6.914;2023-10-13T13:28:48;20.50;99.90
52725;DHT22;38621;52.830;6.914;2023-10-13T13:31:20;20.40;99.90
52725;DHT22;38621;52.830;6.914;2023-10-13T13:33:55;20.40;99.90
52725;DHT22;38621;52.830;6.914;2023-10-13T13:36:21;20.40;99.90
52725;DHT22;38621;52.830;6.914;2023-10-13T13:38:48;20.40;99.90
52725;DHT22;38621;52.830;6.914;2023-10-13T13:41:16;20.50;99.90
52725;DHT22;38621;52.830;6.914;2023-10-13T13:43:47;20.40;99.90
52725;DHT22;38621;52.830;6.914;2023-10-13T13:46:20;20.40;99.90
52725;DHT22;38621;52.830;6.914;2023-10-13T13:48:59;20.40;99.90
52725;DHT22;38621;52.830;6.914;2023-10-13T13:51:29;20.50;99.90
52725;DHT22;38621;52.830;6.914;2023-10-13T13:53:58;20.40;99.90
52725;DHT22;38621;52.830;6.914;2023-10-13T13:56:24;20.30;99.90
52725;DHT22;38621;52.830;6.914;2023-10-13T13:58:55;20.20;99.90
52725;DHT22;38621;52.830;6.914;2023-10-13T14:01:32;20.10;99.90
52725;DHT22;38621;52.830;6.914;2023-10-13T14:03:59;19.80;99.90
52725;DHT22;38621;52.830;6.914;2023-10-13T14:06:29;19.60;99.90
52725;DHT22;38621;52.830;6.914;2023-10-13T14:08:56;19.40;99.90
52725;DHT22;38621;52.830;6.914;2023-10-13T14:11:30;19.40;99.90
52725;DHT22;38621;52.830;6.914;2023-10-13T14:16:41;19.20;99.90
52725;DHT22;38621;52.830;6.914;2023-10-13T14:19:13;19.10;99.90
52725;DHT22;38621;52.830;6.914;2023-10-13T14:21:55;19.10;99.90
52725;DHT22;38621;52.830;6.914;2023-10-13T14:24:22;19.10;99.90
52725;DHT22;38621;52.830;6.914;2023-10-13T14:26:59;19.10;99.90
52725;DHT22;38621;52.830;6.914;2023-10-13T14:29:41;19.10;99.90
52725;DHT22;38621;52.830;6.914;2023-10-13T14:32:12;19.10;99.90
52725;DHT22;38621;52.830;6.914;2023-10-13T14:34:44;19.10;99.90
52725;DHT22;38621;52.830;6.914;2023-10-13T14:37:10;19.10;99.90
52725;DHT22;38621;52.830;6.914;2023-10-13T14:39:42;19.10;99.90
52725;DHT22;38621;52.830;6.914;2023-10-13T14:42:08;19.00;99.90
52725;DHT22;38621;52.830;6.914;2023-10-13T14:44:34;19.00;99.90
52725;DHT22;38621;52.830;6.914;2023-10-13T14:47:03;19.00;99.90
52725;DHT22;38621;52.830;6.914;2023-10-13T14:49:31;19.00;99.90
52725;DHT22;38621;52.830;6.914;2023-10-13T14:51:57;19.10;99.90
52725;DHT22;38621;52.830;6.914;2023-10-13T14:54:25;19.10;99.90
52725;DHT22;38621;52.830;6.914;2023-10-13T14:57:04;19.20;99.90
52725;DHT22;38621;52.830;6.914;2023-10-13T14:59:30;19.20;99.90
52725;DHT22;38621;52.830;6.914;2023-10-13T15:02:00;19.20;99.90
52725;DHT22;38621;52.830;6.914;2023-10-13T15:04:27;19.10;99.90
52725;DHT22;38621;52.830;6.914;2023-10-13T15:06:54;18.90;99.90
52725;DHT22;38621;52.830;6.914;2023-10-13T15:09:20;18.80;99.90
52725;DHT22;38621;52.830;6.914;2023-10-13T15:11:49;18.50;99.90
52725;DHT22;38621;52.830;6.914;2023-10-13T15:14:19;18.30;99.90
52725;DHT22;38621;52.830;6.914;2023-10-13T15:16:46;18.20;99.90
52725;DHT22;38621;52.830;6.914;2023-10-13T15:19:12;18.00;99.90
52725;DHT22;38621;52.830;6.914;2023-10-13T15:21:38;18.00;99.90
52725;DHT22;38621;52.830;6.914;2023-10-13T15:24:06;18.00;99.90
52725;DHT22;38621;52.830;6.914;2023-10-13T15:26:43;17.90;99.90
52725;DHT22;38621;52.830;6.914;2023-10-13T15:29:17;17.90;99.90
52725;DHT22;38621;52.830;6.914;2023-10-13T15:31:46;17.90;99.90
52725;DHT22;38621;52.830;6.914;2023-10-13T15:34:23;17.90;99.90
52725;DHT22;38621;52.830;6.914;2023-10-13T15:36:51;17.90;99.90
52725;DHT22;38621;52.830;6.914;2023-10-13T15:39:18;17.90;99.90
52725;DHT22;38621;52.830;6.914;2023-10-13T15:41:52;17.90;99.90
52725;DHT22;38621;52.830;6.914;2023-10-13T15:44:21;17.90;99.90
52725;DHT22;38621;52.830;6.914;2023-10-13T15:46:53;17.90;99.90
52725;DHT22;38621;52.830;6.914;2023-10-13T15:49:19;17.80;99.90
52725;DHT22;38621;52.830;6.914;2023-10-13T15:51:45;17.80;99.90
52725;DHT22;38621;52.830;6.914;2023-10-13T15:54:11;17.80;99.90
52725;DHT22;38621;52.830;6.914;2023-10-13T15:56:48;17.70;99.90
52725;DHT22;38621;52.830;6.914;2023-10-13T15:59:14;17.70;99.90
52725;DHT22;38621;52.830;6.914;2023-10-13T16:01:40;17.70;99.90
52725;DHT22;38621;52.830;6.914;2023-10-13T16:04:09;17.70;99.90
52725;DHT22;38621;52.830;6.914;2023-10-13T16:09:05;17.80;99.90
52725;DHT22;38621;52.830;6.914;2023-10-13T16:11:40;17.80;99.90
52725;DHT22;38621;52.830;6.914;2023-10-13T16:14:06;17.80;99.90
52725;DHT22;38621;52.830;6.914;2023-10-13T16:16:36;17.80;99.90
52725;DHT22;38621;52.830;6.914;2023-10-13T16:19:02;17.80;99.90
52725;DHT22;38621;52.830;6.914;2023-10-13T16:21:30;17.80;99.90
52725;DHT22;38621;52.830;6.914;2023-10-13T16:23:56;17.80;99.90
52725;DHT22;38621;52.830;6.914;2023-10-13T16:26:21;17.80;99.90
52725;DHT22;38621;52.830;6.914;2023-10-13T16:28:53;17.70;99.90
52725;DHT22;38621;52.830;6.914;2023-10-13T16:31:23;17.70;99.90
52725;DHT22;38621;52.830;6.914;2023-10-13T16:33:49;17.70;99.90
52725;DHT22;38621;52.830;6.914;2023-10-13T16:36:15;17.70;99.90
52725;DHT22;38621;52.830;6.914;2023-10-13T16:38:41;17.70;99.90